sensor_id;sensor_type;location;lat;lon;timestamp;P1;durP1;ratioP1;P2;durP2;ratioP2
61015;SDS011;46902;52.920;6.536;2022-08-19T00:01:37;6.45;;;4.50;;
61015;SDS011;46902;52.920;6.536;2022-08-19T00:04:07;8.73;;;5.00;;
61015;SDS011;46902;52.920;6.536;2022-08-19T00:06:35;7.88;;;4.93;;
61015;SDS011;46902;52.920;6.536;2022-08-19T00:09:02;6.65;;;4.63;;
61015;SDS011;46902;52.920;6.536;2022-08-19T00:11:29;11.43;;;5.10;;
61015;SDS011;46902;52.920;6.536;2022-08-19T00:13:56;5.88;;;3.78;;
61015;SDS011;46902;52.920;6.536;2022-08-19T00:16:22;5.22;;;4.18;;
61015;SDS011;46902;52.920;6.536;2022-08-19T00:18:49;7.72;;;4.03;;
61015;SDS011;46902;52.920;6.536;2022-08-19T00:21:15;6.00;;;4.35;;
61015;SDS011;46902;52.920;6.536;2022-08-19T00:23:41;6.28;;;4.60;;
61015;SDS011;46902;52.920;6.536;2022-08-19T00:26:08;5.35;;;4.20;;
61015;SDS011;46902;52.920;6.536;2022-08-19T00:28:34;6.15;;;4.38;;
61015;SDS011;46902;52.920;6.536;2022-08-19T00:31:01;6.57;;;4.30;;
61015;SDS011;46902;52.920;6.536;2022-08-19T00:33:29;5.72;;;4.13;;
61015;SDS011;46902;52.920;6.536;2022-08-19T00:35:57;6.22;;;4.30;;
61015;SDS011;46902;52.920;6.536;2022-08-19T00:38:26;7.13;;;4.32;;
61015;SDS011;46902;52.920;6.536;2022-08-19T00:40:53;6.80;;;4.07;;
61015;SDS011;46902;52.920;6.536;2022-08-19T00:43:20;8.77;;;4.45;;
61015;SDS011;46902;52.920;6.536;2022-08-19T00:45:47;5.85;;;4.00;;
61015;SDS011;46902;52.920;6.536;2022-08-19T00:48:14;6.05;;;4.60;;
61015;SDS011;46902;52.920;6.536;2022-08-19T00:50:41;8.85;;;4.45;;
61015;SDS011;46902;52.920;6.536;2022-08-19T00:53:09;5.57;;;4.43;;
61015;SDS011;46902;52.920;6.536;2022-08-19T00:55:37;8.60;;;4.95;;
61015;SDS011;46902;52.920;6.536;2022-08-19T00:58:06;4.75;;;3.30;;
61015;SDS011;46902;52.920;6.536;2022-08-19T01:00:34;4.28;;;3.20;;
61015;SDS011;46902;52.920;6.536;2022-08-19T01:03:02;4.68;;;3.55;;
61015;SDS011;46902;52.920;6.536;2022-08-19T01:05:34;5.30;;;3.63;;
61015;SDS011;46902;52.920;6.536;2022-08-19T01:08:01;4.85;;;4.05;;
61015;SDS011;46902;52.920;6.536;2022-08-19T01:10:30;5.63;;;4.18;;
61015;SDS011;46902;52.920;6.536;2022-08-19T01:12:58;6.90;;;4.03;;
61015;SDS011;46902;52.920;6.536;2022-08-19T01:15:27;5.00;;;3.55;;
61015;SDS011;46902;52.920;6.536;2022-08-19T01:18:00;4.50;;;3.67;;
61015;SDS011;46902;52.920;6.536;2022-08-19T01:20:30;4.75;;;3.88;;
61015;SDS011;46902;52.920;6.536;2022-08-19T01:22:57;5.72;;;3.45;;
61015;SDS011;46902;52.920;6.536;2022-08-19T01:25:29;5.43;;;3.83;;
61015;SDS011;46902;52.920;6.536;2022-08-19T01:27:57;5.50;;;4.32;;
61015;SDS011;46902;52.920;6.536;2022-08-19T01:30:25;6.90;;;4.55;;
61015;SDS011;46902;52.920;6.536;2022-08-19T01:32:53;8.27;;;4.20;;
61015;SDS011;46902;52.920;6.536;2022-08-19T01:35:20;7.38;;;3.97;;
61015;SDS011;46902;52.920;6.536;2022-08-19T01:37:53;7.85;;;4.50;;
61015;SDS011;46902;52.920;6.536;2022-08-19T01:40:22;5.65;;;3.70;;
61015;SDS011;46902;52.920;6.536;2022-08-19T01:42:50;6.72;;;3.67;;
61015;SDS011;46902;52.920;6.536;2022-08-19T01:45:17;5.35;;;4.05;;
61015;SDS011;46902;52.920;6.536;2022-08-19T01:47:44;7.38;;;4.38;;
61015;SDS011;46902;52.920;6.536;2022-08-19T01:50:11;6.32;;;4.07;;
61015;SDS011;46902;52.920;6.536;2022-08-19T01:52:39;5.95;;;4.68;;
61015;SDS011;46902;52.920;6.536;2022-08-19T01:55:06;8.10;;;4.50;;
61015;SDS011;46902;52.920;6.536;2022-08-19T01:57:33;5.85;;;4.50;;
61015;SDS011;46902;52.920;6.536;2022-08-19T02:00:00;7.10;;;4.68;;
61015;SDS011;46902;52.920;6.536;2022-08-19T02:02:29;5.32;;;4.35;;
61015;SDS011;46902;52.920;6.536;2022-08-19T02:04:55;6.90;;;4.35;;
61015;SDS011;46902;52.920;6.536;2022-08-19T02:07:21;4.97;;;4.13;;
61015;SDS011;46902;52.920;6.536;2022-08-19T02:09:47;5.55;;;4.88;;
61015;SDS011;46902;52.920;6.536;2022-08-19T02:12:13;6.32;;;4.20;;
61015;SDS011;46902;52.920;6.536;2022-08-19T02:14:39;9.13;;;5.50;;
61015;SDS011;46902;52.920;6.536;2022-08-19T02:17:04;6.45;;;4.80;;
61015;SDS011;46902;52.920;6.536;2022-08-19T02:19:30;8.18;;;5.30;;
61015;SDS011;46902;52.920;6.536;2022-08-19T02:21:57;9.73;;;5.82;;
61015;SDS011;46902;52.920;6.536;2022-08-19T02:24:24;8.90;;;4.82;;
61015;SDS011;46902;52.920;6.536;2022-08-19T02:26:50;4.90;;;4.40;;
61015;SDS011;46902;52.920;6.536;2022-08-19T02:29:16;5.10;;;4.10;;
61015;SDS011;46902;52.920;6.536;2022-08-19T02:31:41;5.57;;;4.80;;
61015;SDS011;46902;52.920;6.536;2022-08-19T02:34:07;6.70;;;5.72;;
61015;SDS011;46902;52.920;6.536;2022-08-19T02:36:33;9.80;;;7.28;;
61015;SDS011;46902;52.920;6.536;2022-08-19T02:38:59;9.13;;;6.55;;
61015;SDS011;46902;52.920;6.536;2022-08-19T02:41:26;8.68;;;7.72;;
61015;SDS011;46902;52.920;6.536;2022-08-19T02:43:56;10.48;;;7.85;;
61015;SDS011;46902;52.920;6.536;2022-08-19T02:46:27;11.55;;;7.88;;
61015;SDS011;46902;52.920;6.536;2022-08-19T02:48:56;8.23;;;7.40;;
61015;SDS011;46902;52.920;6.536;2022-08-19T02:51:25;9.20;;;8.20;;
61015;SDS011;46902;52.920;6.536;2022-08-19T02:53:52;10.80;;;8.55;;
61015;SDS011;46902;52.920;6.536;2022-08-19T02:56:18;8.18;;;7.38;;
61015;SDS011;46902;52.920;6.536;2022-08-19T02:58:45;7.85;;;6.97;;
61015;SDS011;46902;52.920;6.536;2022-08-19T03:01:18;9.10;;;8.20;;
61015;SDS011;46902;52.920;6.536;2022-08-19T03:03:49;8.32;;;7.53;;
61015;SDS011;46902;52.920;6.536;2022-08-19T03:06:15;13.48;;;7.40;;
61015;SDS011;46902;52.920;6.536;2022-08-19T03:08:42;8.75;;;7.43;;
61015;SDS011;46902;52.920;6.536;2022-08-19T03:11:14;9.30;;;8.00;;
61015;SDS011;46902;52.920;6.536;2022-08-19T03:13:45;11.25;;;8.82;;
61015;SDS011;46902;52.920;6.536;2022-08-19T03:16:11;9.23;;;8.32;;
61015;SDS011;46902;52.920;6.536;2022-08-19T03:18:37;9.23;;;8.25;;
61015;SDS011;46902;52.920;6.536;2022-08-19T03:21:03;8.90;;;8.07;;
61015;SDS011;46902;52.920;6.536;2022-08-19T03:23:30;11.00;;;8.68;;
61015;SDS011;46902;52.920;6.536;2022-08-19T03:25:55;10.60;;;8.50;;
61015;SDS011;46902;52.920;6.536;2022-08-19T03:28:21;9.90;;;8.80;;
61015;SDS011;46902;52.920;6.536;2022-08-19T03:31:07;12.38;;;8.57;;
61015;SDS011;46902;52.920;6.536;2022-08-19T03:33:36;8.88;;;8.02;;
61015;SDS011;46902;52.920;6.536;2022-08-19T03:38:32;9.75;;;8.50;;
61015;SDS011;46902;52.920;6.536;2022-08-19T03:41:02;11.10;;;8.05;;
61015;SDS011;46902;52.920;6.536;2022-08-19T03:43:31;9.82;;;8.30;;
61015;SDS011;46902;52.920;6.536;2022-08-19T03:46:02;9.32;;;8.25;;
61015;SDS011;46902;52.920;6.536;2022-08-19T03:48:33;9.93;;;9.02;;
61015;SDS011;46902;52.920;6.536;2022-08-19T03:51:00;9.38;;;8.48;;
61015;SDS011;46902;52.920;6.536;2022-08-19T03:53:27;8.10;;;7.30;;
61015;SDS011;46902;52.920;6.536;2022-08-19T03:55:54;7.88;;;6.45;;
61015;SDS011;46902;52.920;6.536;2022-08-19T03:58:20;11.65;;;8.48;;
61015;SDS011;46902;52.920;6.536;2022-08-19T04:00:47;11.32;;;8.63;;
61015;SDS011;46902;52.920;6.536;2022-08-19T04:03:14;8.05;;;6.63;;
61015;SDS011;46902;52.920;6.536;2022-08-19T04:05:40;5.88;;;5.28;;
61015;SDS011;46902;52.920;6.536;2022-08-19T04:08:05;4.97;;;4.50;;
61015;SDS011;46902;52.920;6.536;2022-08-19T04:10:35;6.20;;;5.60;;
61015;SDS011;46902;52.920;6.536;2022-08-19T04:13:01;8.68;;;6.68;;
61015;SDS011;46902;52.920;6.536;2022-08-19T04:15:29;7.43;;;6.20;;
61015;SDS011;46902;52.920;6.536;2022-08-19T04:17:56;8.73;;;7.20;;
61015;SDS011;46902;52.920;6.536;2022-08-19T04:20:21;9.05;;;7.72;;
61015;SDS011;46902;52.920;6.536;2022-08-19T04:22:47;11.30;;;8.68;;
61015;SDS011;46902;52.920;6.536;2022-08-19T04:25:12;9.55;;;8.55;;
61015;SDS011;46902;52.920;6.536;2022-08-19T04:27:38;11.27;;;9.20;;
61015;SDS011;46902;52.920;6.536;2022-08-19T04:30:04;10.25;;;9.25;;
61015;SDS011;46902;52.920;6.536;2022-08-19T04:32:30;9.68;;;8.38;;
61015;SDS011;46902;52.920;6.536;2022-08-19T04:34:56;11.10;;;10.00;;
61015;SDS011;46902;52.920;6.536;2022-08-19T04:37:23;11.20;;;10.15;;
61015;SDS011;46902;52.920;6.536;2022-08-19T04:39:51;13.98;;;12.52;;
61015;SDS011;46902;52.920;6.536;2022-08-19T04:42:35;12.52;;;11.23;;
61015;SDS011;46902;52.920;6.536;2022-08-19T04:45:08;13.23;;;11.88;;
61015;SDS011;46902;52.920;6.536;2022-08-19T04:47:37;14.27;;;11.68;;
61015;SDS011;46902;52.920;6.536;2022-08-19T04:50:04;13.10;;;11.15;;
61015;SDS011;46902;52.920;6.536;2022-08-19T04:52:30;12.90;;;11.63;;
61015;SDS011;46902;52.920;6.536;2022-08-19T04:54:57;13.88;;;11.85;;
61015;SDS011;46902;52.920;6.536;2022-08-19T04:57:23;12.95;;;11.63;;
61015;SDS011;46902;52.920;6.536;2022-08-19T04:59:48;13.07;;;11.23;;
61015;SDS011;46902;52.920;6.536;2022-08-19T05:02:18;13.27;;;11.88;;
61015;SDS011;46902;52.920;6.536;2022-08-19T05:04:43;14.52;;;11.82;;
61015;SDS011;46902;52.920;6.536;2022-08-19T05:07:09;14.68;;;12.95;;
61015;SDS011;46902;52.920;6.536;2022-08-19T05:09:35;13.15;;;11.75;;
61015;SDS011;46902;52.920;6.536;2022-08-19T05:12:01;14.02;;;12.55;;
61015;SDS011;46902;52.920;6.536;2022-08-19T05:14:26;12.00;;;10.85;;
61015;SDS011;46902;52.920;6.536;2022-08-19T05:16:52;11.85;;;10.75;;
61015;SDS011;46902;52.920;6.536;2022-08-19T05:19:18;14.07;;;11.52;;
61015;SDS011;46902;52.920;6.536;2022-08-19T05:22:02;12.52;;;11.25;;
61015;SDS011;46902;52.920;6.536;2022-08-19T05:24:46;12.88;;;10.80;;
61015;SDS011;46902;52.920;6.536;2022-08-19T05:27:11;12.80;;;11.48;;
61015;SDS011;46902;52.920;6.536;2022-08-19T05:29:37;13.15;;;10.70;;
61015;SDS011;46902;52.920;6.536;2022-08-19T05:32:03;17.48;;;11.43;;
61015;SDS011;46902;52.920;6.536;2022-08-19T05:34:30;21.48;;;13.55;;
61015;SDS011;46902;52.920;6.536;2022-08-19T05:36:57;23.17;;;12.30;;
61015;SDS011;46902;52.920;6.536;2022-08-19T05:39:25;15.57;;;12.07;;
61015;SDS011;46902;52.920;6.536;2022-08-19T05:41:54;16.20;;;13.18;;
61015;SDS011;46902;52.920;6.536;2022-08-19T05:44:25;15.27;;;12.45;;
61015;SDS011;46902;52.920;6.536;2022-08-19T05:46:52;16.27;;;12.40;;
61015;SDS011;46902;52.920;6.536;2022-08-19T05:49:18;14.52;;;12.48;;
61015;SDS011;46902;52.920;6.536;2022-08-19T05:51:45;15.60;;;13.68;;
61015;SDS011;46902;52.920;6.536;2022-08-19T05:54:11;15.05;;;13.45;;
61015;SDS011;46902;52.920;6.536;2022-08-19T05:56:38;16.50;;;14.73;;
61015;SDS011;46902;52.920;6.536;2022-08-19T05:59:06;15.93;;;14.23;;
61015;SDS011;46902;52.920;6.536;2022-08-19T06:01:34;21.33;;;14.18;;
61015;SDS011;46902;52.920;6.536;2022-08-19T06:04:02;18.90;;;15.57;;
61015;SDS011;46902;52.920;6.536;2022-08-19T06:06:28;17.95;;;15.50;;
61015;SDS011;46902;52.920;6.536;2022-08-19T06:08:54;21.65;;;16.27;;
61015;SDS011;46902;52.920;6.536;2022-08-19T06:11:21;21.45;;;15.25;;
61015;SDS011;46902;52.920;6.536;2022-08-19T06:14:00;21.00;;;14.73;;
61015;SDS011;46902;52.920;6.536;2022-08-19T06:16:29;18.40;;;14.23;;
61015;SDS011;46902;52.920;6.536;2022-08-19T06:18:58;19.52;;;14.95;;
61015;SDS011;46902;52.920;6.536;2022-08-19T06:21:26;20.35;;;16.02;;
61015;SDS011;46902;52.920;6.536;2022-08-19T06:23:53;19.20;;;15.85;;
61015;SDS011;46902;52.920;6.536;2022-08-19T06:26:19;21.45;;;16.27;;
61015;SDS011;46902;52.920;6.536;2022-08-19T06:28:47;19.30;;;16.23;;
61015;SDS011;46902;52.920;6.536;2022-08-19T06:31:17;19.52;;;14.90;;
61015;SDS011;46902;52.920;6.536;2022-08-19T06:33:46;20.05;;;15.82;;
61015;SDS011;46902;52.920;6.536;2022-08-19T06:36:16;19.13;;;14.10;;
61015;SDS011;46902;52.920;6.536;2022-08-19T06:38:47;19.92;;;15.40;;
61015;SDS011;46902;52.920;6.536;2022-08-19T06:41:12;19.05;;;15.27;;
61015;SDS011;46902;52.920;6.536;2022-08-19T06:43:38;22.23;;;15.48;;
61015;SDS011;46902;52.920;6.536;2022-08-19T06:46:09;18.55;;;14.65;;
61015;SDS011;46902;52.920;6.536;2022-08-19T06:48:36;21.17;;;15.25;;
61015;SDS011;46902;52.920;6.536;2022-08-19T06:51:02;20.38;;;16.08;;
61015;SDS011;46902;52.920;6.536;2022-08-19T06:53:30;22.55;;;16.05;;
61015;SDS011;46902;52.920;6.536;2022-08-19T06:55:57;18.73;;;15.60;;
61015;SDS011;46902;52.920;6.536;2022-08-19T06:58:26;22.70;;;15.00;;
61015;SDS011;46902;52.920;6.536;2022-08-19T07:00:56;20.70;;;14.82;;
61015;SDS011;46902;52.920;6.536;2022-08-19T07:03:27;15.90;;;14.18;;
61015;SDS011;46902;52.920;6.536;2022-08-19T07:05:55;17.58;;;14.90;;
61015;SDS011;46902;52.920;6.536;2022-08-19T07:08:21;17.27;;;14.48;;
61015;SDS011;46902;52.920;6.536;2022-08-19T07:10:46;19.17;;;14.73;;
61015;SDS011;46902;52.920;6.536;2022-08-19T07:13:14;19.58;;;14.75;;
61015;SDS011;46902;52.920;6.536;2022-08-19T07:15:39;18.20;;;13.82;;
61015;SDS011;46902;52.920;6.536;2022-08-19T07:18:05;18.42;;;13.65;;
61015;SDS011;46902;52.920;6.536;2022-08-19T07:20:31;18.17;;;12.95;;
61015;SDS011;46902;52.920;6.536;2022-08-19T07:22:57;17.55;;;14.20;;
61015;SDS011;46902;52.920;6.536;2022-08-19T07:25:23;17.27;;;13.75;;
61015;SDS011;46902;52.920;6.536;2022-08-19T07:27:49;15.43;;;13.80;;
61015;SDS011;46902;52.920;6.536;2022-08-19T07:30:15;15.82;;;13.40;;
61015;SDS011;46902;52.920;6.536;2022-08-19T07:32:41;22.67;;;14.07;;
61015;SDS011;46902;52.920;6.536;2022-08-19T07:35:08;16.13;;;12.73;;
61015;SDS011;46902;52.920;6.536;2022-08-19T07:37:35;16.30;;;13.68;;
61015;SDS011;46902;52.920;6.536;2022-08-19T07:40:03;16.50;;;13.02;;
61015;SDS011;46902;52.920;6.536;2022-08-19T07:42:30;14.48;;;12.93;;
61015;SDS011;46902;52.920;6.536;2022-08-19T07:44:55;14.52;;;12.85;;
61015;SDS011;46902;52.920;6.536;2022-08-19T07:47:23;13.95;;;12.48;;
61015;SDS011;46902;52.920;6.536;2022-08-19T07:49:48;13.95;;;12.27;;
61015;SDS011;46902;52.920;6.536;2022-08-19T07:52:14;13.43;;;11.93;;
61015;SDS011;46902;52.920;6.536;2022-08-19T07:54:41;12.30;;;11.00;;
61015;SDS011;46902;52.920;6.536;2022-08-19T07:57:07;11.65;;;10.55;;
61015;SDS011;46902;52.920;6.536;2022-08-19T07:59:34;12.90;;;10.52;;
61015;SDS011;46902;52.920;6.536;2022-08-19T08:02:00;13.95;;;10.88;;
61015;SDS011;46902;52.920;6.536;2022-08-19T08:04:26;14.90;;;10.80;;
61015;SDS011;46902;52.920;6.536;2022-08-19T08:07:12;13.10;;;10.50;;
61015;SDS011;46902;52.920;6.536;2022-08-19T08:09:56;15.43;;;10.23;;
61015;SDS011;46902;52.920;6.536;2022-08-19T08:12:23;11.30;;;9.38;;
61015;SDS011;46902;52.920;6.536;2022-08-19T08:14:54;14.15;;;9.30;;
61015;SDS011;46902;52.920;6.536;2022-08-19T08:17:22;12.90;;;10.77;;
61015;SDS011;46902;52.920;6.536;2022-08-19T08:19:50;16.75;;;10.23;;
61015;SDS011;46902;52.920;6.536;2022-08-19T08:22:16;13.93;;;11.90;;
61015;SDS011;46902;52.920;6.536;2022-08-19T08:25:04;14.20;;;12.60;;
61015;SDS011;46902;52.920;6.536;2022-08-19T08:27:35;16.40;;;13.13;;
61015;SDS011;46902;52.920;6.536;2022-08-19T08:30:02;16.02;;;14.38;;
61015;SDS011;46902;52.920;6.536;2022-08-19T08:32:29;17.48;;;14.63;;
61015;SDS011;46902;52.920;6.536;2022-08-19T08:34:55;18.40;;;15.13;;
61015;SDS011;46902;52.920;6.536;2022-08-19T08:37:20;18.70;;;13.82;;
61015;SDS011;46902;52.920;6.536;2022-08-19T08:39:47;15.75;;;14.13;;
61015;SDS011;46902;52.920;6.536;2022-08-19T08:42:24;18.83;;;13.27;;
61015;SDS011;46902;52.920;6.536;2022-08-19T08:44:59;16.98;;;13.35;;
61015;SDS011;46902;52.920;6.536;2022-08-19T08:47:31;17.25;;;13.15;;
61015;SDS011;46902;52.920;6.536;2022-08-19T08:50:05;16.98;;;13.15;;
61015;SDS011;46902;52.920;6.536;2022-08-19T08:52:37;13.88;;;12.48;;
61015;SDS011;46902;52.920;6.536;2022-08-19T08:55:10;15.57;;;14.10;;
61015;SDS011;46902;52.920;6.536;2022-08-19T09:00:19;13.90;;;11.95;;
61015;SDS011;46902;52.920;6.536;2022-08-19T09:02:47;13.63;;;12.25;;
61015;SDS011;46902;52.920;6.536;2022-08-19T09:05:13;15.02;;;13.63;;
61015;SDS011;46902;52.920;6.536;2022-08-19T09:15:45;13.52;;;11.38;;
61015;SDS011;46902;52.920;6.536;2022-08-19T09:18:14;11.00;;;10.00;;
61015;SDS011;46902;52.920;6.536;2022-08-19T09:20:41;12.32;;;10.80;;
61015;SDS011;46902;52.920;6.536;2022-08-19T09:23:07;12.50;;;10.30;;
61015;SDS011;46902;52.920;6.536;2022-08-19T09:25:34;10.05;;;9.05;;
61015;SDS011;46902;52.920;6.536;2022-08-19T09:28:00;16.63;;;15.00;;
61015;SDS011;46902;52.920;6.536;2022-08-19T09:30:30;19.00;;;14.40;;
61015;SDS011;46902;52.920;6.536;2022-08-19T09:32:58;15.45;;;13.82;;
61015;SDS011;46902;52.920;6.536;2022-08-19T09:35:25;13.45;;;12.05;;
61015;SDS011;46902;52.920;6.536;2022-08-19T09:37:54;13.38;;;11.95;;
61015;SDS011;46902;52.920;6.536;2022-08-19T09:40:20;12.35;;;11.15;;
61015;SDS011;46902;52.920;6.536;2022-08-19T09:42:46;10.52;;;9.52;;
61015;SDS011;46902;52.920;6.536;2022-08-19T09:45:13;14.20;;;10.20;;
61015;SDS011;46902;52.920;6.536;2022-08-19T09:47:41;11.95;;;9.43;;
61015;SDS011;46902;52.920;6.536;2022-08-19T09:50:07;21.13;;;11.02;;
61015;SDS011;46902;52.920;6.536;2022-08-19T09:52:35;12.35;;;11.23;;
61015;SDS011;46902;52.920;6.536;2022-08-19T09:55:07;13.13;;;10.82;;
61015;SDS011;46902;52.920;6.536;2022-08-19T09:57:35;12.02;;;10.80;;
61015;SDS011;46902;52.920;6.536;2022-08-19T10:00:00;11.95;;;9.65;;
61015;SDS011;46902;52.920;6.536;2022-08-19T10:02:27;10.85;;;8.80;;
61015;SDS011;46902;52.920;6.536;2022-08-19T10:04:53;12.00;;;9.27;;
61015;SDS011;46902;52.920;6.536;2022-08-19T10:07:37;11.32;;;10.15;;
61015;SDS011;46902;52.920;6.536;2022-08-19T10:10:04;10.40;;;9.35;;
61015;SDS011;46902;52.920;6.536;2022-08-19T10:12:31;10.40;;;9.38;;
61015;SDS011;46902;52.920;6.536;2022-08-19T10:14:58;11.23;;;9.45;;
61015;SDS011;46902;52.920;6.536;2022-08-19T10:17:24;11.80;;;9.35;;
61015;SDS011;46902;52.920;6.536;2022-08-19T10:19:50;13.07;;;10.10;;
61015;SDS011;46902;52.920;6.536;2022-08-19T10:22:17;8.40;;;7.40;;
61015;SDS011;46902;52.920;6.536;2022-08-19T10:24:43;7.07;;;6.38;;
61015;SDS011;46902;52.920;6.536;2022-08-19T10:27:10;7.97;;;6.20;;
61015;SDS011;46902;52.920;6.536;2022-08-19T10:29:35;7.32;;;5.90;;
61015;SDS011;46902;52.920;6.536;2022-08-19T10:32:01;9.23;;;6.15;;
61015;SDS011;46902;52.920;6.536;2022-08-19T10:34:33;9.67;;;8.63;;
61015;SDS011;46902;52.920;6.536;2022-08-19T10:37:01;8.65;;;7.85;;
61015;SDS011;46902;52.920;6.536;2022-08-19T10:39:30;7.85;;;7.05;;
61015;SDS011;46902;52.920;6.536;2022-08-19T10:41:56;9.80;;;8.35;;
61015;SDS011;46902;52.920;6.536;2022-08-19T10:44:22;9.75;;;7.75;;
61015;SDS011;46902;52.920;6.536;2022-08-19T10:46:49;9.68;;;6.82;;
61015;SDS011;46902;52.920;6.536;2022-08-19T10:49:15;10.18;;;9.07;;
61015;SDS011;46902;52.920;6.536;2022-08-19T10:51:41;10.45;;;7.22;;
61015;SDS011;46902;52.920;6.536;2022-08-19T10:54:26;8.75;;;7.60;;
61015;SDS011;46902;52.920;6.536;2022-08-19T10:57:11;9.55;;;6.65;;
61015;SDS011;46902;52.920;6.536;2022-08-19T10:59:37;8.02;;;6.22;;
61015;SDS011;46902;52.920;6.536;2022-08-19T11:02:04;10.63;;;7.25;;
61015;SDS011;46902;52.920;6.536;2022-08-19T11:04:32;8.52;;;7.18;;
61015;SDS011;46902;52.920;6.536;2022-08-19T11:06:58;7.30;;;6.25;;
61015;SDS011;46902;52.920;6.536;2022-08-19T11:09:25;8.80;;;7.70;;
61015;SDS011;46902;52.920;6.536;2022-08-19T11:11:52;8.35;;;6.65;;
61015;SDS011;46902;52.920;6.536;2022-08-19T11:14:19;8.30;;;7.50;;
61015;SDS011;46902;52.920;6.536;2022-08-19T11:16:49;9.15;;;8.25;;
61015;SDS011;46902;52.920;6.536;2022-08-19T11:19:17;10.32;;;8.13;;
61015;SDS011;46902;52.920;6.536;2022-08-19T11:21:44;9.35;;;7.72;;
61015;SDS011;46902;52.920;6.536;2022-08-19T11:24:16;10.65;;;6.40;;
61015;SDS011;46902;52.920;6.536;2022-08-19T11:26:45;6.43;;;5.10;;
61015;SDS011;46902;52.920;6.536;2022-08-19T11:29:15;7.38;;;6.35;;
61015;SDS011;46902;52.920;6.536;2022-08-19T11:31:43;9.30;;;7.20;;
61015;SDS011;46902;52.920;6.536;2022-08-19T11:34:13;10.13;;;7.88;;
61015;SDS011;46902;52.920;6.536;2022-08-19T11:36:44;9.30;;;7.40;;
61015;SDS011;46902;52.920;6.536;2022-08-19T11:39:12;11.88;;;8.45;;
61015;SDS011;46902;52.920;6.536;2022-08-19T11:41:39;12.18;;;8.55;;
61015;SDS011;46902;52.920;6.536;2022-08-19T11:44:05;8.38;;;7.38;;
61015;SDS011;46902;52.920;6.536;2022-08-19T11:46:32;8.07;;;7.28;;
61015;SDS011;46902;52.920;6.536;2022-08-19T11:49:00;8.90;;;6.93;;
61015;SDS011;46902;52.920;6.536;2022-08-19T11:51:26;7.82;;;5.88;;
61015;SDS011;46902;52.920;6.536;2022-08-19T11:53:53;5.05;;;4.07;;
61015;SDS011;46902;52.920;6.536;2022-08-19T11:56:20;6.30;;;4.07;;
61015;SDS011;46902;52.920;6.536;2022-08-19T11:58:46;5.38;;;3.53;;
61015;SDS011;46902;52.920;6.536;2022-08-19T12:01:13;9.05;;;4.90;;
61015;SDS011;46902;52.920;6.536;2022-08-19T12:03:41;7.05;;;4.82;;
61015;SDS011;46902;52.920;6.536;2022-08-19T12:06:09;4.95;;;3.53;;
61015;SDS011;46902;52.920;6.536;2022-08-19T12:08:37;6.32;;;3.25;;
61015;SDS011;46902;52.920;6.536;2022-08-19T12:11:03;4.50;;;3.40;;
61015;SDS011;46902;52.920;6.536;2022-08-19T12:13:30;6.18;;;3.08;;
61015;SDS011;46902;52.920;6.536;2022-08-19T12:15:56;6.88;;;4.00;;
61015;SDS011;46902;52.920;6.536;2022-08-19T12:18:23;7.30;;;4.78;;
61015;SDS011;46902;52.920;6.536;2022-08-19T12:20:50;5.70;;;3.60;;
61015;SDS011;46902;52.920;6.536;2022-08-19T12:23:16;5.05;;;3.15;;
61015;SDS011;46902;52.920;6.536;2022-08-19T12:25:46;6.70;;;3.90;;
61015;SDS011;46902;52.920;6.536;2022-08-19T12:28:19;3.90;;;3.25;;
61015;SDS011;46902;52.920;6.536;2022-08-19T12:30:47;5.50;;;3.40;;
61015;SDS011;46902;52.920;6.536;2022-08-19T12:33:14;2.75;;;2.25;;
61015;SDS011;46902;52.920;6.536;2022-08-19T12:35:41;3.95;;;2.30;;
61015;SDS011;46902;52.920;6.536;2022-08-19T12:38:12;6.57;;;3.10;;
61015;SDS011;46902;52.920;6.536;2022-08-19T12:40:38;5.80;;;4.47;;
61015;SDS011;46902;52.920;6.536;2022-08-19T12:43:07;5.38;;;3.78;;
61015;SDS011;46902;52.920;6.536;2022-08-19T12:45:33;4.63;;;3.80;;
61015;SDS011;46902;52.920;6.536;2022-08-19T12:47:59;5.95;;;4.32;;
61015;SDS011;46902;52.920;6.536;2022-08-19T12:50:24;6.55;;;4.65;;
61015;SDS011;46902;52.920;6.536;2022-08-19T12:52:50;9.45;;;5.10;;
61015;SDS011;46902;52.920;6.536;2022-08-19T12:55:16;7.00;;;4.93;;
61015;SDS011;46902;52.920;6.536;2022-08-19T12:57:43;6.75;;;4.50;;
61015;SDS011;46902;52.920;6.536;2022-08-19T13:00:11;8.02;;;4.80;;
61015;SDS011;46902;52.920;6.536;2022-08-19T13:02:45;6.43;;;5.15;;
61015;SDS011;46902;52.920;6.536;2022-08-19T13:05:17;6.00;;;4.95;;
61015;SDS011;46902;52.920;6.536;2022-08-19T13:07:49;6.53;;;5.40;;
61015;SDS011;46902;52.920;6.536;2022-08-19T13:10:19;8.23;;;5.38;;
61015;SDS011;46902;52.920;6.536;2022-08-19T13:12:48;9.23;;;6.35;;
61015;SDS011;46902;52.920;6.536;2022-08-19T13:15:16;10.10;;;6.35;;
61015;SDS011;46902;52.920;6.536;2022-08-19T13:17:45;7.82;;;4.97;;
61015;SDS011;46902;52.920;6.536;2022-08-19T13:20:15;7.30;;;6.18;;
61015;SDS011;46902;52.920;6.536;2022-08-19T13:22:44;11.30;;;6.57;;
61015;SDS011;46902;52.920;6.536;2022-08-19T13:25:10;6.82;;;5.10;;
61015;SDS011;46902;52.920;6.536;2022-08-19T13:27:37;5.63;;;4.15;;
61015;SDS011;46902;52.920;6.536;2022-08-19T13:30:04;5.78;;;4.25;;
61015;SDS011;46902;52.920;6.536;2022-08-19T13:32:50;8.55;;;6.00;;
61015;SDS011;46902;52.920;6.536;2022-08-19T13:35:34;8.27;;;5.85;;
61015;SDS011;46902;52.920;6.536;2022-08-19T13:37:59;8.30;;;5.93;;
61015;SDS011;46902;52.920;6.536;2022-08-19T13:40:30;12.18;;;8.00;;
61015;SDS011;46902;52.920;6.536;2022-08-19T13:42:59;10.90;;;9.45;;
61015;SDS011;46902;52.920;6.536;2022-08-19T13:45:26;10.77;;;9.20;;
61015;SDS011;46902;52.920;6.536;2022-08-19T13:47:54;12.30;;;9.13;;
61015;SDS011;46902;52.920;6.536;2022-08-19T13:50:23;11.88;;;9.55;;
61015;SDS011;46902;52.920;6.536;2022-08-19T13:52:51;13.07;;;10.05;;
61015;SDS011;46902;52.920;6.536;2022-08-19T13:55:18;12.07;;;9.00;;
61015;SDS011;46902;52.920;6.536;2022-08-19T13:57:43;10.60;;;9.38;;
61015;SDS011;46902;52.920;6.536;2022-08-19T14:00:11;11.98;;;9.32;;
61015;SDS011;46902;52.920;6.536;2022-08-19T14:02:40;13.20;;;8.90;;
61015;SDS011;46902;52.920;6.536;2022-08-19T14:05:06;11.93;;;10.13;;
61015;SDS011;46902;52.920;6.536;2022-08-19T14:07:36;16.33;;;11.98;;
61015;SDS011;46902;52.920;6.536;2022-08-19T14:10:02;19.63;;;15.02;;
61015;SDS011;46902;52.920;6.536;2022-08-19T14:12:29;22.10;;;13.77;;
61015;SDS011;46902;52.920;6.536;2022-08-19T14:14:57;30.10;;;16.20;;
61015;SDS011;46902;52.920;6.536;2022-08-19T14:17:23;30.38;;;16.85;;
61015;SDS011;46902;52.920;6.536;2022-08-19T14:19:49;26.55;;;17.42;;
61015;SDS011;46902;52.920;6.536;2022-08-19T14:22:20;23.45;;;17.02;;
61015;SDS011;46902;52.920;6.536;2022-08-19T14:24:46;24.50;;;17.90;;
61015;SDS011;46902;52.920;6.536;2022-08-19T14:27:12;27.00;;;19.20;;
61015;SDS011;46902;52.920;6.536;2022-08-19T14:29:38;21.15;;;17.98;;
61015;SDS011;46902;52.920;6.536;2022-08-19T14:32:04;26.63;;;18.73;;
61015;SDS011;46902;52.920;6.536;2022-08-19T14:34:29;19.00;;;15.43;;
61015;SDS011;46902;52.920;6.536;2022-08-19T14:36:56;17.92;;;14.80;;
61015;SDS011;46902;52.920;6.536;2022-08-19T14:39:22;15.20;;;13.20;;
61015;SDS011;46902;52.920;6.536;2022-08-19T14:41:48;17.15;;;13.07;;
61015;SDS011;46902;52.920;6.536;2022-08-19T14:44:14;19.45;;;12.55;;
61015;SDS011;46902;52.920;6.536;2022-08-19T14:46:39;17.45;;;13.80;;
61015;SDS011;46902;52.920;6.536;2022-08-19T14:49:05;16.10;;;14.10;;
61015;SDS011;46902;52.920;6.536;2022-08-19T14:51:31;20.55;;;15.20;;
61015;SDS011;46902;52.920;6.536;2022-08-19T14:53:57;16.73;;;14.35;;